createdAt,value
2018-07-04T00:01:34.865Z,18.00
2018-07-04T00:04:07.921Z,17.90
2018-07-04T00:06:40.528Z,17.90
2018-07-04T00:09:13.197Z,17.90
2018-07-04T00:11:46.196Z,17.80
2018-07-04T00:14:18.899Z,17.80
2018-07-04T00:16:52.354Z,17.80
2018-07-04T00:19:24.992Z,17.70
2018-07-04T00:21:57.622Z,17.80
2018-07-04T00:24:30.297Z,17.70
2018-07-04T00:27:03.758Z,17.60
2018-07-04T00:29:36.473Z,17.50
2018-07-04T00:32:09.092Z,17.50
2018-07-04T00:34:41.786Z,17.50
2018-07-04T00:37:14.589Z,17.50
2018-07-04T00:39:48.005Z,17.60
2018-07-04T00:42:20.748Z,17.60
2018-07-04T00:44:53.416Z,17.70
2018-07-04T00:47:26.048Z,17.70
2018-07-04T00:49:58.776Z,17.70
2018-07-04T00:53:02.833Z,17.70
2018-07-04T00:55:36.852Z,17.70
2018-07-04T00:58:09.415Z,17.70
2018-07-04T01:00:42.403Z,17.70
2018-07-04T01:03:15.000Z,17.60
2018-07-04T01:05:48.188Z,17.60
2018-07-04T01:08:21.251Z,17.50
2018-07-04T01:10:54.120Z,17.50
2018-07-04T01:13:26.750Z,17.50
2018-07-04T01:15:59.503Z,17.50
2018-07-04T01:18:32.108Z,17.50
2018-07-04T01:21:10.629Z,17.60
2018-07-04T01:23:43.292Z,17.60
2018-07-04T01:26:15.953Z,17.60
2018-07-04T01:28:49.511Z,17.50
2018-07-04T01:31:22.236Z,17.50
2018-07-04T01:33:55.233Z,17.50
2018-07-04T01:36:28.546Z,17.60
2018-07-04T01:39:01.593Z,17.50
2018-07-04T01:41:34.065Z,17.50
2018-07-04T01:44:06.701Z,17.50
2018-07-04T01:46:39.276Z,17.40
2018-07-04T01:50:36.483Z,17.30
2018-07-04T01:53:09.236Z,17.40
2018-07-04T01:55:42.117Z,17.40
2018-07-04T01:58:14.781Z,17.30
2018-07-04T02:00:47.472Z,17.40
2018-07-04T02:03:20.349Z,17.50
2018-07-04T02:05:53.285Z,17.50
2018-07-04T02:08:25.990Z,17.50
2018-07-04T02:10:58.645Z,17.40
2018-07-04T02:13:31.250Z,17.50
2018-07-04T02:16:03.869Z,17.60
2018-07-04T02:18:36.521Z,17.60
2018-07-04T02:21:09.357Z,17.60
2018-07-04T02:23:42.152Z,17.50
2018-07-04T02:26:14.762Z,17.40
2018-07-04T02:28:47.398Z,17.50
2018-07-04T02:31:20.099Z,17.40
2018-07-04T02:33:53.421Z,17.50
2018-07-04T02:36:26.109Z,17.50
2018-07-04T02:38:59.060Z,17.50
2018-07-04T02:41:31.738Z,17.50
2018-07-04T02:44:05.197Z,17.50
2018-07-04T02:46:37.836Z,17.40
2018-07-04T02:49:11.202Z,17.40
2018-07-04T02:51:44.128Z,17.50
2018-07-04T02:54:16.797Z,17.40
2018-07-04T02:56:49.957Z,17.40
2018-07-04T02:59:22.463Z,17.30
2018-07-04T03:01:56.211Z,17.20
2018-07-04T03:04:28.909Z,17.20
2018-07-04T03:07:01.891Z,17.20
2018-07-04T03:09:34.548Z,17.30
2018-07-04T03:12:07.225Z,17.20
2018-07-04T03:14:40.113Z,17.10
2018-07-04T03:17:13.190Z,17.10
2018-07-04T03:19:45.867Z,17.10
2018-07-04T03:22:18.409Z,17.00
2018-07-04T03:24:51.077Z,17.10
2018-07-04T03:27:23.756Z,17.10
2018-07-04T03:29:56.904Z,17.10
2018-07-04T03:32:29.521Z,17.20
2018-07-04T03:35:02.221Z,17.10
2018-07-04T03:37:34.832Z,17.20
2018-07-04T03:40:07.549Z,17.20
2018-07-04T03:42:40.355Z,17.20
2018-07-04T03:45:13.005Z,17.40
2018-07-04T03:47:46.292Z,17.30
2018-07-04T03:50:18.744Z,17.30
2018-07-04T03:52:51.392Z,17.50
2018-07-04T03:57:50.809Z,17.50
2018-07-04T04:00:23.408Z,17.60
2018-07-04T04:02:56.088Z,17.60
2018-07-04T04:05:28.763Z,17.60
2018-07-04T04:08:02.027Z,17.70
2018-07-04T04:10:34.531Z,17.80
2018-07-04T04:13:07.277Z,18.00
2018-07-04T04:15:39.840Z,18.20
2018-07-04T04:18:12.513Z,18.50
2018-07-04T04:20:45.165Z,18.80
2018-07-04T04:23:18.052Z,18.90
2018-07-04T04:25:50.794Z,19.10
2018-07-04T04:28:23.464Z,19.10
2018-07-04T04:30:56.128Z,19.10
2018-07-04T04:33:28.800Z,19.20
2018-07-04T04:36:01.464Z,19.30
2018-07-04T04:38:34.136Z,19.30
2018-07-04T04:41:07.309Z,19.30
2018-07-04T04:43:39.831Z,19.30
2018-07-04T04:46:12.482Z,19.30
2018-07-04T04:48:45.086Z,19.30
2018-07-04T04:51:17.704Z,19.40
2018-07-04T04:53:50.340Z,19.40
2018-07-04T04:56:23.602Z,19.00
2018-07-04T04:58:56.249Z,19.00
2018-07-04T05:01:28.879Z,19.00
2018-07-04T05:04:01.501Z,19.00
2018-07-04T05:06:34.148Z,19.10
2018-07-04T05:09:06.776Z,19.60
2018-07-04T05:11:39.354Z,20.20
2018-07-04T05:14:12.127Z,20.70
2018-07-04T05:16:44.642Z,21.20
2018-07-04T05:19:17.279Z,21.50
2018-07-04T05:21:49.940Z,21.90
2018-07-04T05:24:22.584Z,22.40
2018-07-04T05:26:55.305Z,22.70
2018-07-04T05:29:28.060Z,23.00
2018-07-04T05:32:01.001Z,23.30
2018-07-04T05:34:33.695Z,23.70
2018-07-04T05:37:06.333Z,23.70
2018-07-04T05:39:38.909Z,23.70
2018-07-04T05:42:11.399Z,23.60
2018-07-04T05:44:44.046Z,23.60
2018-07-04T05:47:17.648Z,23.60
2018-07-04T05:52:17.010Z,22.80
2018-07-04T05:54:49.952Z,22.60
2018-07-04T05:57:22.576Z,22.80
2018-07-04T05:59:55.208Z,22.70
2018-07-04T06:02:28.121Z,22.90
2018-07-04T06:05:00.849Z,22.80
2018-07-04T06:07:33.682Z,22.70
2018-07-04T06:10:06.435Z,22.60
2018-07-04T06:12:39.082Z,22.80
2018-07-04T06:15:11.786Z,23.20
2018-07-04T06:17:44.407Z,23.40
2018-07-04T06:20:17.025Z,24.00
2018-07-04T06:22:49.822Z,24.40
2018-07-04T06:25:22.381Z,24.50
2018-07-04T06:27:55.044Z,24.70
2018-07-04T06:30:27.704Z,25.20
2018-07-04T06:33:00.416Z,25.50
2018-07-04T06:35:33.713Z,25.50
2018-07-04T06:38:00.112Z,25.50
2018-07-04T06:40:26.515Z,25.50
2018-07-04T06:42:52.909Z,26.00
2018-07-04T06:45:19.785Z,26.10
2018-07-04T06:47:47.609Z,26.10
2018-07-04T06:50:14.021Z,25.30
2018-07-04T06:52:40.418Z,25.10
2018-07-04T06:55:06.829Z,25.20
2018-07-04T06:57:33.228Z,25.10
2018-07-04T06:59:59.721Z,25.10
2018-07-04T07:02:27.390Z,25.10
2018-07-04T07:05:01.185Z,25.10
2018-07-04T07:07:34.152Z,24.90
2018-07-04T07:10:07.251Z,25.20
2018-07-04T07:12:39.795Z,25.50
2018-07-04T07:15:12.492Z,26.00
2018-07-04T07:17:45.174Z,26.20
2018-07-04T07:20:17.816Z,26.10
2018-07-04T07:22:50.480Z,26.30
2018-07-04T07:25:23.141Z,26.60
2018-07-04T07:27:55.773Z,27.00
2018-07-04T07:30:28.583Z,27.40
2018-07-04T07:33:01.616Z,27.60
2018-07-04T07:40:28.149Z,28.30
2018-07-04T07:43:00.828Z,28.50
2018-07-04T07:45:34.089Z,28.60
2018-07-04T07:48:07.257Z,28.80
2018-07-04T07:50:39.734Z,29.00
2018-07-04T07:53:13.112Z,28.90
2018-07-04T07:55:45.777Z,28.90
2018-07-04T07:58:18.443Z,28.90
2018-07-04T08:00:51.240Z,29.10
2018-07-04T08:03:24.597Z,29.60
2018-07-04T08:05:57.114Z,29.60
2018-07-04T08:08:30.070Z,29.30
2018-07-04T08:11:03.518Z,29.60
2018-07-04T08:13:36.549Z,29.90
2018-07-04T08:16:09.057Z,29.80
2018-07-04T08:18:41.777Z,29.70
2018-07-04T08:21:14.945Z,29.40
2018-07-04T08:23:47.540Z,28.20
2018-07-04T08:26:20.232Z,28.20
2018-07-04T08:28:53.680Z,28.20
2018-07-04T08:31:26.344Z,28.30
2018-07-04T08:33:59.683Z,28.20
2018-07-04T08:36:32.219Z,27.90
2018-07-04T08:39:05.069Z,27.70
2018-07-04T08:41:38.223Z,27.70
2018-07-04T08:44:11.381Z,27.70
2018-07-04T08:46:44.302Z,28.30
2018-07-04T08:49:16.755Z,28.40
2018-07-04T08:51:49.513Z,28.50
2018-07-04T08:54:22.119Z,28.60
2018-07-04T08:56:54.811Z,28.70
2018-07-04T08:59:27.544Z,29.00
2018-07-04T09:02:00.277Z,29.20
2018-07-04T09:04:33.524Z,29.60
2018-07-04T09:07:06.615Z,29.50
2018-07-04T09:09:39.157Z,29.40
2018-07-04T09:12:11.762Z,29.40
2018-07-04T09:14:44.521Z,29.40
2018-07-04T09:19:44.165Z,29.20
2018-07-04T09:22:16.899Z,29.20
2018-07-04T09:24:49.475Z,29.50
2018-07-04T09:27:22.665Z,29.70
2018-07-04T09:29:56.264Z,29.70
2018-07-04T09:32:28.940Z,29.80
2018-07-04T09:35:01.612Z,29.80
2018-07-04T09:37:34.295Z,30.00
2018-07-04T09:40:08.174Z,30.00
2018-07-04T09:42:40.955Z,30.10
2018-07-04T09:45:13.608Z,30.10
2018-07-04T09:47:46.296Z,30.30
2018-07-04T09:50:18.977Z,30.20
2018-07-04T09:52:51.618Z,30.10
2018-07-04T09:55:24.296Z,30.10
2018-07-04T09:57:56.984Z,30.50
2018-07-04T10:00:29.897Z,30.50
2018-07-04T10:03:02.430Z,30.70
2018-07-04T10:05:35.169Z,30.80
2018-07-04T10:08:07.845Z,31.10
2018-07-04T10:10:40.411Z,31.20
2018-07-04T10:13:13.077Z,31.30
2018-07-04T10:15:46.304Z,31.40
2018-07-04T10:18:19.078Z,31.50
2018-07-04T10:20:52.880Z,31.30
2018-07-04T10:23:25.521Z,31.30
2018-07-04T10:25:58.317Z,31.50
2018-07-04T10:28:30.867Z,31.90
2018-07-04T10:31:04.138Z,31.90
2018-07-04T10:33:36.667Z,30.90
2018-07-04T10:36:09.277Z,31.20
2018-07-04T10:38:41.913Z,31.40
2018-07-04T10:41:15.131Z,31.50
2018-07-04T10:43:47.785Z,31.10
2018-07-04T10:46:20.444Z,30.70
2018-07-04T10:48:53.636Z,30.70
2018-07-04T10:51:26.256Z,31.00
2018-07-04T10:53:58.890Z,31.10
2018-07-04T10:56:31.476Z,31.20
2018-07-04T10:59:05.041Z,31.20
2018-07-04T11:01:37.724Z,31.20
2018-07-04T11:04:10.438Z,31.30
2018-07-04T11:06:43.072Z,31.20
2018-07-04T11:09:15.698Z,31.30
2018-07-04T11:11:48.256Z,31.30
2018-07-04T11:14:21.012Z,31.40
2018-07-04T11:16:53.808Z,31.60
2018-07-04T11:19:26.432Z,31.70
2018-07-04T11:21:59.120Z,31.80
2018-07-04T11:24:31.732Z,31.90
2018-07-04T11:27:04.481Z,32.10
2018-07-04T11:29:37.110Z,32.20
2018-07-04T11:32:09.796Z,32.30
2018-07-04T11:34:42.492Z,32.40
2018-07-04T11:37:15.190Z,32.40
2018-07-04T11:39:47.880Z,32.20
2018-07-04T11:42:20.549Z,32.30
2018-07-04T11:44:53.637Z,32.40
2018-07-04T11:47:20.117Z,32.50
2018-07-04T11:49:46.572Z,32.60
2018-07-04T11:52:12.948Z,32.30
2018-07-04T11:54:39.735Z,31.90
2018-07-04T11:57:06.201Z,31.20
2018-07-04T11:59:33.167Z,30.80
2018-07-04T12:02:00.621Z,30.60
2018-07-04T12:04:33.588Z,30.50
2018-07-04T12:07:03.190Z,30.50
2018-07-04T12:09:29.642Z,30.50
2018-07-04T12:11:56.139Z,30.10
2018-07-04T12:14:22.587Z,29.70
2018-07-04T12:16:49.225Z,29.70
2018-07-04T12:19:15.896Z,29.70
2018-07-04T12:21:42.314Z,29.80
2018-07-04T12:24:09.040Z,29.90
2018-07-04T12:26:35.501Z,30.00
2018-07-04T12:29:02.470Z,30.10
2018-07-04T12:31:29.181Z,30.30
2018-07-04T12:33:55.565Z,30.30
2018-07-04T12:36:21.983Z,30.20
2018-07-04T12:38:48.385Z,30.20
2018-07-04T12:41:14.828Z,30.40
2018-07-04T12:43:41.262Z,30.60
2018-07-04T12:46:07.730Z,30.60
2018-07-04T12:48:34.224Z,30.50
2018-07-04T12:51:00.732Z,30.40
2018-07-04T12:53:27.160Z,30.40
2018-07-04T12:55:59.804Z,30.50
2018-07-04T12:58:32.519Z,30.50
2018-07-04T13:01:05.236Z,30.50
2018-07-04T13:03:38.024Z,30.70
2018-07-04T13:06:10.585Z,30.50
2018-07-04T13:08:43.437Z,30.30
2018-07-04T13:11:15.957Z,30.30
2018-07-04T13:13:48.768Z,30.40
2018-07-04T13:16:21.305Z,30.30
2018-07-04T13:18:53.885Z,30.20
2018-07-04T13:21:26.567Z,30.10
2018-07-04T13:23:59.274Z,30.10
2018-07-04T13:26:31.933Z,30.00
2018-07-04T13:29:04.638Z,30.10
2018-07-04T13:31:37.624Z,30.00
2018-07-04T13:34:10.577Z,29.90
2018-07-04T13:36:43.805Z,29.90
2018-07-04T13:39:16.505Z,29.80
2018-07-04T13:41:49.171Z,29.80
2018-07-04T13:44:22.047Z,29.80
2018-07-04T13:46:54.684Z,29.80
2018-07-04T13:49:27.343Z,29.80
2018-07-04T13:52:00.046Z,29.70
2018-07-04T13:54:32.817Z,29.40
2018-07-04T13:57:05.453Z,29.30
2018-07-04T13:59:38.273Z,29.20
2018-07-04T14:02:10.801Z,29.10
2018-07-04T14:04:43.407Z,29.00
2018-07-04T14:07:16.099Z,29.10
2018-07-04T14:09:48.832Z,29.20
2018-07-04T14:12:22.413Z,29.20
2018-07-04T14:14:54.968Z,29.20
2018-07-04T14:17:27.858Z,29.30
2018-07-04T14:20:00.571Z,29.40
2018-07-04T14:22:34.080Z,29.30
2018-07-04T14:25:06.653Z,29.50
2018-07-04T14:27:39.654Z,29.50
2018-07-04T14:30:12.281Z,29.30
2018-07-04T14:32:45.507Z,29.20
2018-07-04T14:35:18.240Z,29.10
2018-07-04T14:37:51.020Z,29.20
2018-07-04T14:40:23.603Z,29.40
2018-07-04T14:42:56.121Z,29.60
2018-07-04T14:45:28.906Z,29.60
2018-07-04T14:48:01.702Z,29.60
2018-07-04T14:50:34.360Z,29.50
2018-07-04T14:53:06.910Z,29.60
2018-07-04T14:55:39.605Z,29.60
2018-07-04T14:58:12.244Z,29.80
2018-07-04T15:00:44.995Z,29.90
2018-07-04T15:03:17.657Z,29.90
2018-07-04T15:05:50.565Z,29.60
2018-07-04T15:08:23.057Z,29.40
2018-07-04T15:10:55.761Z,29.20
2018-07-04T15:13:28.504Z,29.10
2018-07-04T15:16:01.383Z,29.00
2018-07-04T15:18:33.962Z,28.90
2018-07-04T15:21:06.556Z,28.90
2018-07-04T15:23:39.096Z,28.80
2018-07-04T15:26:11.852Z,28.80
2018-07-04T15:28:44.540Z,28.70
2018-07-04T15:31:17.205Z,28.60
2018-07-04T15:33:49.885Z,28.60
2018-07-04T15:37:25.963Z,28.70
2018-07-04T15:39:58.603Z,28.70
2018-07-04T15:42:31.239Z,28.70
2018-07-04T15:45:03.918Z,28.80
2018-07-04T15:47:36.645Z,28.80
2018-07-04T15:50:09.350Z,28.80
2018-07-04T15:55:45.942Z,28.60
2018-07-04T15:58:18.562Z,28.50
2018-07-04T16:00:51.333Z,28.50
2018-07-04T16:03:23.980Z,28.50
2018-07-04T16:05:56.996Z,28.40
2018-07-04T16:08:29.936Z,28.30
2018-07-04T16:11:02.636Z,28.20
2018-07-04T16:13:35.228Z,28.10
2018-07-04T16:16:08.112Z,28.10
2018-07-04T16:18:40.677Z,28.10
2018-07-04T16:21:13.371Z,28.10
2018-07-04T16:23:46.083Z,27.90
2018-07-04T16:26:18.857Z,27.90
2018-07-04T16:28:51.514Z,27.80
2018-07-04T16:31:24.257Z,27.70
2018-07-04T16:33:56.913Z,27.80
2018-07-04T16:36:29.780Z,27.70
2018-07-04T16:39:02.504Z,27.60
2018-07-04T16:41:35.249Z,27.60
2018-07-04T16:44:08.419Z,27.60
2018-07-04T16:46:40.855Z,27.50
2018-07-04T16:49:13.501Z,27.40
2018-07-04T16:51:46.265Z,27.30
2018-07-04T16:54:18.788Z,27.20
2018-07-04T16:56:52.044Z,27.10
2018-07-04T16:59:24.628Z,27.10
2018-07-04T17:01:59.477Z,27.10
2018-07-04T17:04:32.201Z,27.00
2018-07-04T17:07:04.973Z,27.00
2018-07-04T17:09:37.877Z,27.00
2018-07-04T17:12:10.789Z,27.10
2018-07-04T17:14:43.456Z,27.10
2018-07-04T17:17:16.150Z,27.10
2018-07-04T17:19:48.845Z,27.00
2018-07-04T17:22:21.845Z,27.00
2018-07-04T17:24:54.464Z,27.00
2018-07-04T17:27:27.104Z,27.00
2018-07-04T17:29:59.787Z,26.90
2018-07-04T17:32:32.931Z,26.90
2018-07-04T17:35:05.571Z,26.80
2018-07-04T17:37:38.233Z,26.70
2018-07-04T17:40:10.943Z,26.60
2018-07-04T17:42:44.173Z,26.50
2018-07-04T17:45:16.661Z,26.50
2018-07-04T17:47:49.327Z,26.40
2018-07-04T17:50:22.249Z,26.30
2018-07-04T17:52:54.929Z,26.30
2018-07-04T17:55:27.613Z,26.20
2018-07-04T18:00:27.863Z,26.10
2018-07-04T18:03:00.567Z,26.10
2018-07-04T18:05:33.241Z,26.00
2018-07-04T18:08:05.929Z,25.80
2018-07-04T18:10:39.227Z,25.60
2018-07-04T18:13:11.932Z,25.70
2018-07-04T18:15:44.852Z,25.60
2018-07-04T18:18:17.522Z,25.60
2018-07-04T18:20:50.125Z,25.60
2018-07-04T18:23:22.830Z,25.60
2018-07-04T18:25:55.533Z,25.50
2018-07-04T18:28:28.266Z,25.40
2018-07-04T18:31:01.025Z,25.40
2018-07-04T18:33:33.554Z,25.50
2018-07-04T18:36:06.265Z,25.60
2018-07-04T18:38:38.960Z,25.60
2018-07-04T18:41:11.700Z,25.50
2018-07-04T18:43:44.256Z,25.50
2018-07-04T18:46:16.894Z,25.40
2018-07-04T18:51:16.699Z,25.40
2018-07-04T18:53:49.409Z,25.30
2018-07-04T18:56:22.153Z,25.30
2018-07-04T18:58:54.734Z,25.20
2018-07-04T19:01:27.417Z,25.20
2018-07-04T19:04:00.070Z,25.00
2018-07-04T19:06:32.840Z,24.90
2018-07-04T19:09:05.966Z,24.80
2018-07-04T19:11:38.457Z,24.80
2018-07-04T19:14:11.142Z,24.80
2018-07-04T19:16:43.760Z,24.80
2018-07-04T19:19:16.489Z,24.70
2018-07-04T19:21:49.080Z,24.80
2018-07-04T19:24:21.727Z,24.70
2018-07-04T19:26:55.043Z,24.60
2018-07-04T19:29:27.690Z,24.60
2018-07-04T19:32:00.320Z,24.50
2018-07-04T19:34:32.968Z,24.50
2018-07-04T19:37:05.513Z,24.40
2018-07-04T19:39:38.481Z,24.30
2018-07-04T19:42:11.184Z,24.20
2018-07-04T19:44:44.164Z,24.10
2018-07-04T19:47:16.908Z,24.00
2018-07-04T19:49:49.712Z,24.00
2018-07-04T19:52:22.348Z,23.90
2018-07-04T19:54:55.051Z,23.90
2018-07-04T19:57:27.872Z,23.90
2018-07-04T20:00:00.754Z,23.90
2018-07-04T20:02:33.402Z,23.80
2018-07-04T20:05:06.107Z,23.70
2018-07-04T20:07:38.957Z,23.70
2018-07-04T20:10:11.471Z,23.60
2018-07-04T20:12:44.166Z,23.40
2018-07-04T20:15:16.883Z,23.30
2018-07-04T20:17:49.640Z,23.30
2018-07-04T20:20:22.226Z,23.30
2018-07-04T20:22:55.178Z,23.20
2018-07-04T20:25:27.748Z,23.10
2018-07-04T20:28:00.821Z,23.20
2018-07-04T20:30:34.524Z,23.10
2018-07-04T20:33:07.043Z,23.00
2018-07-04T20:35:39.764Z,23.00
2018-07-04T20:38:12.480Z,23.00
2018-07-04T20:40:45.244Z,23.00
2018-07-04T20:43:18.068Z,22.90
2018-07-04T20:45:50.804Z,22.80
2018-07-04T20:48:23.519Z,22.90
2018-07-04T20:50:56.080Z,22.70
2018-07-04T20:53:29.015Z,22.60
2018-07-04T20:56:02.239Z,22.50
2018-07-04T20:58:35.356Z,22.30
2018-07-04T21:01:08.229Z,22.20
2018-07-04T21:03:40.785Z,22.20
2018-07-04T21:06:13.492Z,22.20
2018-07-04T21:08:46.119Z,22.20
2018-07-04T21:11:18.765Z,22.20
2018-07-04T21:13:51.573Z,22.20
2018-07-04T21:16:24.412Z,22.20
2018-07-04T21:18:57.048Z,22.20
2018-07-04T21:21:29.777Z,22.20
2018-07-04T21:24:02.401Z,22.00
2018-07-04T21:26:35.762Z,22.00
2018-07-04T21:29:08.968Z,22.00
2018-07-04T21:31:41.727Z,22.10
2018-07-04T21:34:14.455Z,22.00
2018-07-04T21:36:47.098Z,21.90
2018-07-04T21:39:19.930Z,21.90
2018-07-04T21:41:52.679Z,21.90
2018-07-04T21:44:25.252Z,21.90
2018-07-04T21:46:57.900Z,21.80
2018-07-04T21:49:30.681Z,21.70
2018-07-04T21:52:03.605Z,21.60
2018-07-04T21:54:36.181Z,21.60
2018-07-04T21:57:08.955Z,21.60
2018-07-04T22:02:08.384Z,21.50
2018-07-04T22:04:40.947Z,21.50
2018-07-04T22:07:13.678Z,21.50
2018-07-04T22:09:46.327Z,21.50
2018-07-04T22:12:20.568Z,21.40
2018-07-04T22:14:53.129Z,21.40
2018-07-04T22:17:25.797Z,21.30
2018-07-04T22:19:58.528Z,21.30
2018-07-04T22:22:31.333Z,21.30
2018-07-04T22:25:03.951Z,21.20
2018-07-04T22:27:36.759Z,20.90
2018-07-04T22:30:09.213Z,20.90
2018-07-04T22:32:41.952Z,20.90
2018-07-04T22:35:14.516Z,20.90
2018-07-04T22:37:47.168Z,20.90
2018-07-04T22:40:19.844Z,20.90
2018-07-04T22:42:52.525Z,20.90
2018-07-04T22:45:25.396Z,20.90
2018-07-04T22:47:57.989Z,20.80
2018-07-04T22:50:30.641Z,20.80
2018-07-04T22:53:04.878Z,20.80
2018-07-04T22:55:37.963Z,20.60
2018-07-04T22:58:11.045Z,20.40
2018-07-04T23:00:44.647Z,20.30
2018-07-04T23:03:17.432Z,20.30
2018-07-04T23:05:50.117Z,20.30
2018-07-04T23:08:22.979Z,20.30
2018-07-04T23:10:55.603Z,20.30
2018-07-04T23:13:29.936Z,20.30
2018-07-04T23:16:03.148Z,20.20
2018-07-04T23:18:36.220Z,20.10
2018-07-04T23:21:10.356Z,19.90
2018-07-04T23:23:43.030Z,19.90
2018-07-04T23:26:15.944Z,19.80
2018-07-04T23:28:48.634Z,19.80
2018-07-04T23:31:22.440Z,19.70
2018-07-04T23:33:55.722Z,19.70
2018-07-04T23:36:28.328Z,19.80
2018-07-04T23:39:01.046Z,19.90
2018-07-04T23:41:33.658Z,19.90
2018-07-04T23:44:06.936Z,19.80
2018-07-04T23:46:39.480Z,19.60
2018-07-04T23:49:12.656Z,19.60
2018-07-04T23:51:45.293Z,19.60
2018-07-04T23:54:17.986Z,19.50
2018-07-04T23:56:51.047Z,19.50
2018-07-04T23:59:23.548Z,19.40
